sensor_id;sensor_type;location;lat;lon;timestamp;temperature;humidity
72646;DHT22;60687;53.876;10.674;2023-04-01T00:09:20;10.60;99.90
72646;DHT22;60687;53.876;10.674;2023-04-01T00:19:23;10.60;99.90
72646;DHT22;60687;53.876;10.674;2023-04-01T00:29:27;10.50;99.90
72646;DHT22;60687;53.876;10.674;2023-04-01T00:39:32;10.50;99.90
72646;DHT22;60687;53.876;10.674;2023-04-01T00:49:38;10.40;99.90
72646;DHT22;60687;53.876;10.674;2023-04-01T00:59:45;10.40;99.90
72646;DHT22;60687;53.876;10.674;2023-04-01T01:09:57;10.40;99.90
72646;DHT22;60687;53.876;10.674;2023-04-01T01:30:39;10.40;99.90
72646;DHT22;60687;53.876;10.674;2023-04-01T01:40:50;10.30;99.90
72646;DHT22;60687;53.876;10.674;2023-04-01T01:50:56;10.30;99.90
72646;DHT22;60687;53.876;10.674;2023-04-01T02:01:03;10.30;99.90
72646;DHT22;60687;53.876;10.674;2023-04-01T02:11:10;10.30;99.90
72646;DHT22;60687;53.876;10.674;2023-04-01T02:21:20;10.10;99.90
72646;DHT22;60687;53.876;10.674;2023-04-01T02:31:24;9.80;99.90
72646;DHT22;60687;53.876;10.674;2023-04-01T02:41:29;9.60;99.90
72646;DHT22;60687;53.876;10.674;2023-04-01T02:51:32;9.50;99.90
72646;DHT22;60687;53.876;10.674;2023-04-01T03:01:36;9.30;99.90
72646;DHT22;60687;53.876;10.674;2023-04-01T03:11:38;9.10;99.90
72646;DHT22;60687;53.876;10.674;2023-04-01T03:21:43;9.00;99.90
72646;DHT22;60687;53.876;10.674;2023-04-01T03:31:45;8.70;99.90
72646;DHT22;60687;53.876;10.674;2023-04-01T03:41:49;8.60;99.90
72646;DHT22;60687;53.876;10.674;2023-04-01T03:51:53;8.40;99.90
72646;DHT22;60687;53.876;10.674;2023-04-01T04:01:57;8.20;99.90
72646;DHT22;60687;53.876;10.674;2023-04-01T04:12:00;8.20;99.90
72646;DHT22;60687;53.876;10.674;2023-04-01T04:22:05;8.00;99.90
72646;DHT22;60687;53.876;10.674;2023-04-01T04:32:08;7.80;99.90
72646;DHT22;60687;53.876;10.674;2023-04-01T04:42:12;7.60;99.90
72646;DHT22;60687;53.876;10.674;2023-04-01T04:52:14;7.50;99.90
72646;DHT22;60687;53.876;10.674;2023-04-01T05:02:19;7.30;99.90
72646;DHT22;60687;53.876;10.674;2023-04-01T05:12:22;7.20;99.90
72646;DHT22;60687;53.876;10.674;2023-04-01T05:22:35;7.00;99.90
72646;DHT22;60687;53.876;10.674;2023-04-01T05:32:37;6.90;99.90
72646;DHT22;60687;53.876;10.674;2023-04-01T05:42:42;6.80;99.90
72646;DHT22;60687;53.876;10.674;2023-04-01T05:52:44;6.70;99.90
72646;DHT22;60687;53.876;10.674;2023-04-01T06:02:48;6.60;99.90
72646;DHT22;60687;53.876;10.674;2023-04-01T06:12:56;6.50;99.90
72646;DHT22;60687;53.876;10.674;2023-04-01T06:23:20;6.40;99.90
72646;DHT22;60687;53.876;10.674;2023-04-01T06:33:36;6.40;99.90
72646;DHT22;60687;53.876;10.674;2023-04-01T06:43:53;6.30;99.90
72646;DHT22;60687;53.876;10.674;2023-04-01T06:54:24;6.20;99.90
72646;DHT22;60687;53.876;10.674;2023-04-01T07:04:46;6.10;99.90
72646;DHT22;60687;53.876;10.674;2023-04-01T07:14:50;6.10;99.90
72646;DHT22;60687;53.876;10.674;2023-04-01T07:24:59;6.10;99.90
72646;DHT22;60687;53.876;10.674;2023-04-01T07:35:13;6.10;99.90
72646;DHT22;60687;53.876;10.674;2023-04-01T07:45:24;6.10;99.90
72646;DHT22;60687;53.876;10.674;2023-04-01T07:55:35;6.10;99.90
72646;DHT22;60687;53.876;10.674;2023-04-01T08:05:49;6.10;99.90
72646;DHT22;60687;53.876;10.674;2023-04-01T08:15:55;6.10;99.90
72646;DHT22;60687;53.876;10.674;2023-04-01T08:26:32;6.00;99.90
72646;DHT22;60687;53.876;10.674;2023-04-01T08:36:39;6.00;99.90
72646;DHT22;60687;53.876;10.674;2023-04-01T08:47:33;6.00;99.90
72646;DHT22;60687;53.876;10.674;2023-04-01T08:57:49;6.10;99.90
72646;DHT22;60687;53.876;10.674;2023-04-01T09:08:25;6.10;99.90
72646;DHT22;60687;53.876;10.674;2023-04-01T09:19:06;6.10;99.90
72646;DHT22;60687;53.876;10.674;2023-04-01T09:29:26;6.20;99.90
72646;DHT22;60687;53.876;10.674;2023-04-01T09:39:36;6.10;99.90
72646;DHT22;60687;53.876;10.674;2023-04-01T09:50:06;6.10;99.90
72646;DHT22;60687;53.876;10.674;2023-04-01T10:00:44;6.10;99.90
72646;DHT22;60687;53.876;10.674;2023-04-01T10:11:17;6.10;99.90
72646;DHT22;60687;53.876;10.674;2023-04-01T10:22:04;6.10;99.90
72646;DHT22;60687;53.876;10.674;2023-04-01T10:54:04;6.00;99.90
72646;DHT22;60687;53.876;10.674;2023-04-01T11:15:56;5.90;99.90
72646;DHT22;60687;53.876;10.674;2023-04-01T11:26:14;5.90;99.90
72646;DHT22;60687;53.876;10.674;2023-04-01T11:36:48;5.80;99.90
72646;DHT22;60687;53.876;10.674;2023-04-01T11:47:18;5.80;99.90
72646;DHT22;60687;53.876;10.674;2023-04-01T11:57:38;5.80;99.90
72646;DHT22;60687;53.876;10.674;2023-04-01T12:07:57;5.80;99.90
72646;DHT22;60687;53.876;10.674;2023-04-01T12:18:12;5.80;99.90
72646;DHT22;60687;53.876;10.674;2023-04-01T12:28:22;5.70;99.90
72646;DHT22;60687;53.876;10.674;2023-04-01T12:38:39;5.70;99.90
72646;DHT22;60687;53.876;10.674;2023-04-01T12:49:00;5.70;99.90
72646;DHT22;60687;53.876;10.674;2023-04-01T12:59:23;5.70;99.90
72646;DHT22;60687;53.876;10.674;2023-04-01T13:09:39;5.60;99.90
72646;DHT22;60687;53.876;10.674;2023-04-01T13:19:53;5.60;99.90
72646;DHT22;60687;53.876;10.674;2023-04-01T13:30:18;5.60;99.90
72646;DHT22;60687;53.876;10.674;2023-04-01T13:40:39;5.60;99.90
72646;DHT22;60687;53.876;10.674;2023-04-01T13:51:11;5.70;99.90
72646;DHT22;60687;53.876;10.674;2023-04-01T14:01:23;5.70;99.90
72646;DHT22;60687;53.876;10.674;2023-04-01T14:11:34;5.70;99.90
72646;DHT22;60687;53.876;10.674;2023-04-01T14:21:47;5.70;99.90
72646;DHT22;60687;53.876;10.674;2023-04-01T14:32:02;5.60;99.90
72646;DHT22;60687;53.876;10.674;2023-04-01T14:52:57;5.50;99.90
72646;DHT22;60687;53.876;10.674;2023-04-01T15:03:11;5.50;99.90
72646;DHT22;60687;53.876;10.674;2023-04-01T15:13:33;5.40;99.90
72646;DHT22;60687;53.876;10.674;2023-04-01T15:23:51;5.40;99.90
72646;DHT22;60687;53.876;10.674;2023-04-01T15:34:15;5.30;99.90
72646;DHT22;60687;53.876;10.674;2023-04-01T15:44:50;5.30;99.90
72646;DHT22;60687;53.876;10.674;2023-04-01T15:55:19;5.20;99.90
72646;DHT22;60687;53.876;10.674;2023-04-01T16:05:31;5.10;99.90
72646;DHT22;60687;53.876;10.674;2023-04-01T16:15:58;5.10;99.90
72646;DHT22;60687;53.876;10.674;2023-04-01T16:26:08;5.10;99.90
72646;DHT22;60687;53.876;10.674;2023-04-01T16:36:22;5.00;99.90
72646;DHT22;60687;53.876;10.674;2023-04-01T16:46:32;5.00;99.90
72646;DHT22;60687;53.876;10.674;2023-04-01T16:56:42;5.00;99.90
72646;DHT22;60687;53.876;10.674;2023-04-01T17:06:54;4.90;99.90
72646;DHT22;60687;53.876;10.674;2023-04-01T17:27:42;4.70;99.90
72646;DHT22;60687;53.876;10.674;2023-04-01T17:37:57;4.60;99.90
72646;DHT22;60687;53.876;10.674;2023-04-01T17:48:18;4.60;99.80
72646;DHT22;60687;53.876;10.674;2023-04-01T17:58:29;4.60;98.50
72646;DHT22;60687;53.876;10.674;2023-04-01T18:08:50;4.50;97.80
72646;DHT22;60687;53.876;10.674;2023-04-01T18:19:02;4.40;98.00
72646;DHT22;60687;53.876;10.674;2023-04-01T18:29:24;4.40;97.30
72646;DHT22;60687;53.876;10.674;2023-04-01T18:39:35;4.40;95.90
72646;DHT22;60687;53.876;10.674;2023-04-01T18:49:48;4.30;96.70
72646;DHT22;60687;53.876;10.674;2023-04-01T19:00:02;4.30;96.00
72646;DHT22;60687;53.876;10.674;2023-04-01T19:10:17;4.20;93.50
72646;DHT22;60687;53.876;10.674;2023-04-01T19:20:26;4.10;90.90
72646;DHT22;60687;53.876;10.674;2023-04-01T19:30:44;4.00;90.90
72646;DHT22;60687;53.876;10.674;2023-04-01T19:40:53;3.80;91.50
72646;DHT22;60687;53.876;10.674;2023-04-01T19:51:07;3.80;92.20
72646;DHT22;60687;53.876;10.674;2023-04-01T20:01:16;3.70;91.70
72646;DHT22;60687;53.876;10.674;2023-04-01T20:11:35;3.60;91.00
72646;DHT22;60687;53.876;10.674;2023-04-01T20:21:45;3.60;91.80
72646;DHT22;60687;53.876;10.674;2023-04-01T20:31:58;3.50;91.70
72646;DHT22;60687;53.876;10.674;2023-04-01T20:42:27;3.40;91.60
72646;DHT22;60687;53.876;10.674;2023-04-01T20:52:38;3.40;91.60
72646;DHT22;60687;53.876;10.674;2023-04-01T21:02:51;3.30;91.30
72646;DHT22;60687;53.876;10.674;2023-04-01T21:13:07;3.30;92.10
72646;DHT22;60687;53.876;10.674;2023-04-01T21:23:19;3.20;93.00
72646;DHT22;60687;53.876;10.674;2023-04-01T21:33:48;3.20;92.30
72646;DHT22;60687;53.876;10.674;2023-04-01T21:44:16;3.10;92.40
72646;DHT22;60687;53.876;10.674;2023-04-01T21:54:50;3.10;92.30
72646;DHT22;60687;53.876;10.674;2023-04-01T22:05:09;3.10;91.90
72646;DHT22;60687;53.876;10.674;2023-04-01T22:15:20;3.00;89.70
72646;DHT22;60687;53.876;10.674;2023-04-01T22:25:32;3.00;87.60
72646;DHT22;60687;53.876;10.674;2023-04-01T22:35:44;2.90;85.40
72646;DHT22;60687;53.876;10.674;2023-04-01T22:46:07;3.00;86.60
72646;DHT22;60687;53.876;10.674;2023-04-01T22:56:22;2.90;87.40
72646;DHT22;60687;53.876;10.674;2023-04-01T23:06:31;2.90;89.00
72646;DHT22;60687;53.876;10.674;2023-04-01T23:16:40;2.90;90.10
72646;DHT22;60687;53.876;10.674;2023-04-01T23:26:50;2.90;90.40
72646;DHT22;60687;53.876;10.674;2023-04-01T23:36:58;2.90;90.80
72646;DHT22;60687;53.876;10.674;2023-04-01T23:47:08;2.90;90.90
72646;DHT22;60687;53.876;10.674;2023-04-01T23:57:19;2.90;91.40
